Wednesday, September 20, 2017, 9:31 PM EDT

KJYO, Leesburg / Godfrey

Location: Leesburg, VA, United States Lat: 39.083
Local Time: 9:31 PM EDT ( 1:31 GMT) Lon: -77.567
Time Zone: US/Eastern Elev: 390 ft

Show me the last for .
Show Decoded

2017-09-20 21:15 METAR KJYO 210115Z AUTO 35003KT 10SM CLR 22/19 A2999 RMK AO2 =
2017-09-20 20:55 METAR KJYO 210055Z AUTO 35003KT 10SM CLR 22/20 A2998 RMK AO2 =
2017-09-20 20:35 METAR KJYO 210035Z AUTO 00000KT 10SM CLR 22/20 A2998 RMK AO2 =
2017-09-20 20:15 METAR KJYO 210015Z AUTO 00000KT 10SM CLR 23/20 A2998 RMK AO2 =
2017-09-20 19:55 METAR KJYO 202355Z AUTO 00000KT 10SM CLR 23/20 A2998 RMK AO2 =
2017-09-20 19:35 METAR KJYO 202335Z AUTO 00000KT 10SM CLR 25/19 A2997 RMK AO2 =
2017-09-20 19:15 METAR KJYO 202315Z AUTO 00000KT 10SM CLR 26/18 A2997 RMK AO2 =
2017-09-20 18:55 METAR KJYO 202255Z AUTO 00000KT 10SM CLR 27/19 A2996 RMK AO2 =
2017-09-20 18:35 METAR KJYO 202235Z AUTO 32003KT 10SM CLR 28/17 A2996 RMK AO2 =
2017-09-20 18:15 METAR KJYO 202215Z AUTO 36004KT 10SM CLR 29/17 A2996 RMK AO2 =
2017-09-20 17:55 METAR KJYO 202155Z AUTO 36005KT 10SM CLR 30/17 A2996 RMK AO2 =
2017-09-20 17:35 METAR KJYO 202135Z AUTO 35005KT 10SM CLR 30/17 A2995 RMK AO2 =
2017-09-20 17:15 METAR KJYO 202115Z AUTO 36007KT 10SM CLR 30/17 A2995 RMK AO2 =
2017-09-20 16:55 METAR KJYO 202055Z AUTO 03005KT 10SM CLR 30/17 A2995 RMK AO2 =
2017-09-20 16:35 METAR KJYO 202035Z AUTO 10SM CLR 30/17 A2995 RMK AO2 =
2017-09-20 16:15 METAR KJYO 202015Z AUTO 36006G14KT 10SM CLR 30/16 A2995 RMK AO2 =
2017-09-20 15:55 METAR KJYO 201955Z AUTO 34010KT 10SM CLR 30/17 A2995 RMK AO2 LTG DSNT SW =
2017-09-20 15:35 METAR KJYO 201935Z AUTO 35007KT 10SM CLR 30/17 A2995 RMK AO2 =
2017-09-20 15:15 METAR KJYO 201915Z AUTO 01007KT 10SM CLR 30/17 A2996 RMK AO2 =
2017-09-20 14:55 METAR KJYO 201855Z AUTO 34008KT 10SM CLR 30/17 A2996 RMK AO2 =
2017-09-20 14:35 METAR KJYO 201835Z AUTO 36009KT 10SM CLR 30/17 A2996 RMK AO2 =
2017-09-20 14:15 METAR KJYO 201815Z AUTO 32008KT 10SM CLR 30/18 A2997 RMK AO2 =
2017-09-20 13:55 METAR KJYO 201755Z AUTO 34007KT 10SM CLR 29/17 A2997 RMK AO2 =
2017-09-20 13:35 METAR KJYO 201735Z AUTO 34007KT 10SM CLR 28/18 A2998 RMK AO2 =
2017-09-20 13:15 METAR KJYO 201715Z AUTO 35006KT 10SM CLR 28/18 A2998 RMK AO2 =
2017-09-20 12:55 METAR KJYO 201655Z AUTO 34009KT 10SM CLR 28/18 A2999 RMK AO2 =
2017-09-20 12:35 METAR KJYO 201635Z AUTO 35006KT 10SM CLR 28/18 A2999 RMK AO2 =
2017-09-20 12:15 METAR KJYO 201615Z AUTO 34009G15KT 10SM CLR 27/19 A3000 RMK AO2 =
2017-09-20 11:55 METAR KJYO 201555Z AUTO 33007KT 10SM CLR 27/20 A3000 RMK AO2 =
2017-09-20 11:35 METAR KJYO 201535Z AUTO 33008KT 10SM CLR 26/19 A3001 RMK AO2 =
2017-09-20 11:15 METAR KJYO 201515Z AUTO 33007KT 310V010 10SM CLR 26/19 A3001 RMK AO2 =
2017-09-20 10:55 METAR KJYO 201455Z AUTO 36008KT 10SM CLR 26/19 A3001 RMK AO2 =
2017-09-20 10:35 METAR KJYO 201435Z AUTO 35006KT 10SM CLR 25/20 A3001 RMK AO2 =
2017-09-20 10:15 METAR KJYO 201415Z AUTO 35006KT 10SM CLR 25/20 A3001 RMK AO2 =
2017-09-20 09:55 METAR KJYO 201355Z AUTO 34006KT 10SM CLR 24/20 A3002 RMK AO2 =
2017-09-20 09:35 METAR KJYO 201335Z AUTO 32006KT 10SM CLR 23/19 A3002 RMK AO2 =
2017-09-20 09:15 METAR KJYO 201315Z AUTO 33010KT 10SM CLR 23/19 A3001 RMK AO2 =
2017-09-20 08:55 METAR KJYO 201255Z AUTO 36005KT 10SM CLR 22/19 A3001 RMK AO2 =
2017-09-20 08:35 METAR KJYO 201235Z AUTO 35008KT 10SM CLR 22/18 A3000 RMK AO2 =
2017-09-20 08:15 METAR KJYO 201215Z AUTO 35007KT 10SM CLR 21/18 A2999 RMK AO2 =
2017-09-20 07:55 METAR KJYO 201155Z AUTO 31007KT 10SM CLR 20/18 A2999 RMK AO2 =
2017-09-20 07:35 METAR KJYO 201135Z AUTO 33006KT 10SM CLR 19/18 A2998 RMK AO2 =
2017-09-20 07:15 METAR KJYO 201115Z AUTO 29004KT 10SM CLR 18/17 A2997 RMK AO2 =
2017-09-20 06:55 METAR KJYO 201055Z AUTO 32008KT 10SM CLR 19/18 A2997 RMK AO2 =
2017-09-20 06:35 METAR KJYO 201035Z AUTO 34008KT 10SM CLR 19/18 A2996 RMK AO2 =
2017-09-20 06:15 METAR KJYO 201015Z AUTO 34007KT 10SM CLR 18/18 A2996 RMK AO2 =
2017-09-20 05:55 METAR KJYO 200955Z AUTO 33005KT 10SM CLR 18/18 A2995 RMK AO2 =
2017-09-20 05:35 METAR KJYO 200935Z AUTO 36004KT 10SM CLR 19/18 A2995 RMK AO2 =
2017-09-20 05:15 METAR KJYO 200915Z AUTO 34003KT 10SM CLR 20/18 A2995 RMK AO2 =
2017-09-20 04:55 METAR KJYO 200855Z AUTO 36004KT 10SM CLR 20/18 A2995 RMK AO2 =
2017-09-20 04:35 METAR KJYO 200835Z AUTO 34004KT 10SM CLR 20/18 A2995 RMK AO2 =
2017-09-20 04:15 METAR KJYO 200815Z AUTO 34005KT 10SM CLR 20/18 A2995 RMK AO2 =
2017-09-20 03:55 METAR KJYO 200755Z AUTO 34004KT 10SM CLR 20/18 A2995 RMK AO2 =
2017-09-20 03:35 METAR KJYO 200735Z AUTO 00000KT 10SM CLR 18/18 A2995 RMK AO2 =
2017-09-20 03:15 METAR KJYO 200715Z AUTO 00000KT 10SM SCT085 18/18 A2995 RMK AO2 =
2017-09-20 02:55 METAR KJYO 200655Z AUTO 00000KT 10SM SCT085 18/18 A2995 RMK AO2 =
2017-09-20 02:35 METAR KJYO 200635Z AUTO 30003KT 10SM CLR 18/18 A2995 RMK AO2 =
2017-09-20 02:15 METAR KJYO 200615Z AUTO 00000KT 10SM CLR 17/17 A2996 RMK AO2 =
2017-09-20 01:55 METAR KJYO 200555Z AUTO 00000KT 10SM CLR 19/18 A2996 RMK AO2 =
2017-09-20 01:35 METAR KJYO 200535Z AUTO 00000KT 10SM CLR 20/18 A2996 RMK AO2 =
2017-09-20 01:15 METAR KJYO 200515Z AUTO 32004KT 10SM CLR 19/18 A2996 RMK AO2 =
2017-09-20 00:55 METAR KJYO 200455Z AUTO 00000KT 10SM CLR 20/19 A2995 RMK AO2 =
2017-09-20 00:35 METAR KJYO 200435Z AUTO 29003KT 10SM CLR 18/18 A2994 RMK AO2 =
2017-09-20 00:15 METAR KJYO 200415Z AUTO 01004KT 10SM CLR 20/19 A2994 RMK AO2 =
2017-09-19 23:55 METAR KJYO 200355Z AUTO 34003KT 10SM CLR 20/19 A2995 RMK AO2 =
2017-09-19 23:35 METAR KJYO 200335Z AUTO 36005KT 10SM CLR 20/20 A2995 RMK AO2 =
2017-09-19 23:15 METAR KJYO 200315Z AUTO 33003KT 10SM CLR 20/19 A2996 RMK AO2 =
2017-09-19 22:55 METAR KJYO 200255Z AUTO 01003KT 10SM CLR 21/20 A2996 RMK AO2 =
2017-09-19 22:35 METAR KJYO 200235Z AUTO 35003KT 10SM CLR 21/20 A2995 RMK AO2 =
2017-09-19 22:15 METAR KJYO 200215Z AUTO 01003KT 10SM CLR 22/20 A2996 RMK AO2 =
2017-09-19 21:55 METAR KJYO 200155Z AUTO 00000KT 10SM CLR 21/20 A2995 RMK AO2 =
2017-09-19 21:35 METAR KJYO 200135Z AUTO 33004KT 10SM CLR 22/20 A2995 RMK AO2 =

Support USWX by starting your Amazon purchase here.